createdAt,value
2023-07-16T00:00:22.052Z,87715.88
2023-07-16T00:02:48.604Z,87715.44
2023-07-16T00:05:15.602Z,87735.91
2023-07-16T00:07:42.345Z,87733.22
2023-07-16T00:10:09.184Z,87760.69
2023-07-16T00:12:35.972Z,87731.31
2023-07-16T00:15:02.342Z,87717.34
2023-07-16T00:17:28.719Z,87746.22
2023-07-16T00:19:55.550Z,87733.06
2023-07-16T00:22:22.074Z,87755.06
2023-07-16T00:24:48.615Z,87754.88
2023-07-16T00:27:15.402Z,87754.41
2023-07-16T00:29:41.812Z,87762.25
2023-07-16T00:32:08.355Z,87779.66
2023-07-16T00:34:35.277Z,87787.78
2023-07-16T00:37:03.717Z,87813.00
2023-07-16T00:39:31.296Z,87846.78
2023-07-16T00:41:57.744Z,87872.50
2023-07-16T00:44:24.229Z,87932.75
2023-07-16T00:46:51.971Z,87987.22
2023-07-16T00:49:18.493Z,87998.53
2023-07-16T00:51:45.740Z,88037.19
2023-07-16T00:54:12.681Z,88041.22
2023-07-16T00:56:39.352Z,88085.41
2023-07-16T00:59:05.731Z,88120.81
2023-07-16T01:01:32.534Z,88156.88
2023-07-16T01:03:59.177Z,88176.00
2023-07-16T01:06:48.692Z,88220.94
2023-07-16T01:09:19.874Z,88254.97
2023-07-16T01:11:47.653Z,88300.81
2023-07-16T01:14:17.402Z,88303.03
2023-07-16T01:16:44.325Z,88306.19
2023-07-16T01:19:11.073Z,88311.03
2023-07-16T01:21:58.728Z,88295.50
2023-07-16T01:24:58.385Z,88325.75
2023-07-16T01:27:53.473Z,88383.59
2023-07-16T01:30:20.375Z,88439.28
2023-07-16T01:32:47.464Z,88451.72
2023-07-16T01:35:15.479Z,88447.81
2023-07-16T01:37:43.004Z,88422.81
2023-07-16T01:40:10.308Z,88412.06
2023-07-16T01:42:37.141Z,88406.69
2023-07-16T01:45:04.336Z,88435.44
2023-07-16T01:47:47.641Z,88461.44
2023-07-16T01:50:14.116Z,88458.13
2023-07-16T01:52:40.907Z,88432.25
2023-07-16T01:55:08.181Z,88440.78
2023-07-16T01:57:34.561Z,88439.00
2023-07-16T02:00:01.420Z,88435.09
2023-07-16T02:02:27.935Z,88448.88
2023-07-16T02:04:54.393Z,88461.16
2023-07-16T02:07:21.140Z,88467.00
2023-07-16T02:09:47.517Z,88487.19
2023-07-16T02:12:13.921Z,88491.31
2023-07-16T02:14:40.698Z,88498.53
2023-07-16T02:17:07.096Z,88529.66
2023-07-16T02:19:33.496Z,88519.91
2023-07-16T02:22:00.339Z,88545.47
2023-07-16T02:24:26.786Z,88553.25
2023-07-16T02:26:53.155Z,88550.28
2023-07-16T02:29:19.949Z,88576.13
2023-07-16T02:31:47.665Z,88587.63
2023-07-16T02:34:14.198Z,88582.25
2023-07-16T02:36:40.965Z,88607.50
2023-07-16T02:39:07.363Z,88615.09
2023-07-16T02:41:33.738Z,88651.66
2023-07-16T02:44:06.724Z,88667.03
2023-07-16T02:46:33.887Z,88702.22
2023-07-16T02:49:00.721Z,88686.75
2023-07-16T02:51:27.240Z,88689.25
2023-07-16T02:53:53.654Z,88732.91
2023-07-16T02:56:20.684Z,88702.44
2023-07-16T02:58:47.063Z,88647.41
2023-07-16T03:01:13.736Z,88625.91
2023-07-16T03:03:40.637Z,88554.06
2023-07-16T03:06:08.560Z,88602.53
2023-07-16T03:08:36.313Z,88678.84
2023-07-16T03:11:02.764Z,88673.34
2023-07-16T03:13:29.302Z,88691.22
2023-07-16T03:15:56.205Z,88700.22
2023-07-16T03:18:22.607Z,88694.69
2023-07-16T03:20:49.105Z,88688.56
2023-07-16T03:23:15.829Z,88711.88
2023-07-16T03:25:42.208Z,88786.63
2023-07-16T03:28:08.614Z,88801.88
2023-07-16T03:30:35.446Z,88822.28
2023-07-16T03:33:01.830Z,88851.22
2023-07-16T03:35:29.897Z,88786.91
2023-07-16T03:37:56.783Z,88839.69
2023-07-16T03:40:26.293Z,88815.69
2023-07-16T03:42:53.115Z,88802.72
2023-07-16T03:45:20.372Z,88815.19
2023-07-16T03:47:47.039Z,88792.94
2023-07-16T03:50:13.628Z,88784.84
2023-07-16T03:52:40.378Z,88767.34
2023-07-16T03:55:07.949Z,88714.47
2023-07-16T03:57:34.729Z,88683.75
2023-07-16T04:00:01.980Z,88676.75
2023-07-16T04:02:28.407Z,88764.59
2023-07-16T04:04:54.840Z,88802.72
2023-07-16T04:07:21.611Z,88782.97
2023-07-16T04:09:48.415Z,88839.44
2023-07-16T04:12:14.785Z,88940.13
2023-07-16T04:14:42.177Z,88955.09
2023-07-16T04:17:08.701Z,88991.28
2023-07-16T04:19:35.150Z,89025.44
2023-07-16T04:22:02.242Z,89126.47
2023-07-16T04:24:28.710Z,89123.09
2023-07-16T04:26:55.888Z,89110.38
2023-07-16T04:29:22.954Z,89132.84
2023-07-16T04:31:49.359Z,89127.84
2023-07-16T04:34:15.760Z,89148.34
2023-07-16T04:36:43.850Z,89168.09
2023-07-16T04:39:10.486Z,89176.25
2023-07-16T04:41:37.285Z,89214.19
2023-07-16T04:44:04.188Z,89205.47
2023-07-16T04:46:31.421Z,89234.59
2023-07-16T04:48:58.051Z,89294.47
2023-07-16T04:51:25.148Z,89331.34
2023-07-16T04:53:52.090Z,89373.19
2023-07-16T04:56:18.846Z,89385.81
2023-07-16T04:58:46.495Z,89403.97
2023-07-16T05:01:12.919Z,89353.06
2023-07-16T05:03:39.367Z,89363.06
2023-07-16T05:06:06.490Z,89406.38
2023-07-16T05:08:32.946Z,89471.94
2023-07-16T05:11:00.153Z,89546.75
2023-07-16T05:13:27.060Z,89579.63
2023-07-16T05:15:53.639Z,89619.50
2023-07-16T05:18:20.338Z,89676.78
2023-07-16T05:20:50.487Z,89811.09
2023-07-16T05:23:16.867Z,89900.81
2023-07-16T05:25:50.234Z,89981.38
2023-07-16T05:28:18.313Z,89937.69
2023-07-16T05:30:44.812Z,89869.97
2023-07-16T05:33:12.186Z,89807.69
2023-07-16T05:35:40.620Z,89753.09
2023-07-16T05:38:07.577Z,89765.22
2023-07-16T05:40:34.117Z,89816.44
2023-07-16T05:43:00.515Z,89891.78
2023-07-16T05:45:27.187Z,89914.25
2023-07-16T05:47:53.656Z,89929.69
2023-07-16T05:50:20.079Z,89928.28
2023-07-16T05:52:49.373Z,89916.81
2023-07-16T05:55:16.018Z,89926.91
2023-07-16T05:57:42.434Z,89970.34
2023-07-16T06:00:10.534Z,90030.03
2023-07-16T06:02:37.118Z,90026.78
2023-07-16T06:05:03.777Z,90079.88
2023-07-16T06:07:30.761Z,90146.38
2023-07-16T06:09:57.139Z,90169.38
2023-07-16T06:12:23.582Z,90209.44
2023-07-16T06:14:50.215Z,90224.47
2023-07-16T06:17:16.602Z,90206.47
2023-07-16T06:19:43.708Z,90209.06
2023-07-16T06:22:10.468Z,90212.03
2023-07-16T06:24:36.967Z,90221.97
2023-07-16T06:27:03.564Z,90244.66
2023-07-16T06:29:30.391Z,90280.69
2023-07-16T06:31:58.520Z,90289.13
2023-07-16T06:34:26.546Z,90328.38
2023-07-16T06:36:53.186Z,90386.75
2023-07-16T06:39:19.703Z,90392.78
2023-07-16T06:41:46.578Z,90388.84
2023-07-16T06:44:13.366Z,90331.88
2023-07-16T06:46:39.873Z,90389.19
2023-07-16T06:49:07.736Z,90451.66
2023-07-16T06:51:34.791Z,90468.22
2023-07-16T06:54:01.360Z,90456.00
2023-07-16T06:56:27.897Z,90451.09
2023-07-16T06:58:54.675Z,90410.97
2023-07-16T07:01:21.096Z,90353.78
2023-07-16T07:03:47.686Z,90319.28
2023-07-16T07:06:14.733Z,90315.75
2023-07-16T07:08:41.278Z,90294.59
2023-07-16T07:11:07.692Z,90333.13
2023-07-16T07:13:34.568Z,90482.84
2023-07-16T07:16:00.961Z,90445.91
2023-07-16T07:18:28.036Z,90530.06
2023-07-16T07:20:54.514Z,90540.50
2023-07-16T07:23:20.972Z,90503.69
2023-07-16T07:25:53.980Z,90524.31
2023-07-16T07:28:21.088Z,90467.34
2023-07-16T07:30:47.756Z,90402.06
2023-07-16T07:33:14.846Z,90353.28
2023-07-16T07:35:41.298Z,90375.28
2023-07-16T07:38:08.362Z,90377.56
2023-07-16T07:40:34.810Z,90451.66
2023-07-16T07:43:01.308Z,90408.78
2023-07-16T07:45:28.350Z,90353.00
2023-07-16T07:47:54.803Z,90341.94
2023-07-16T07:50:21.802Z,90290.75
2023-07-16T07:52:48.210Z,90340.34
2023-07-16T07:55:14.996Z,90314.25
2023-07-16T07:57:41.783Z,90315.28
2023-07-16T08:00:12.504Z,90310.72
2023-07-16T08:02:39.489Z,90329.34
2023-07-16T08:05:07.082Z,90275.06
2023-07-16T08:07:33.769Z,90269.28
2023-07-16T08:10:00.240Z,90183.53
2023-07-16T08:12:27.028Z,90127.63
2023-07-16T08:14:53.453Z,90113.50
2023-07-16T08:17:22.043Z,90098.78
2023-07-16T08:19:50.596Z,90115.88
2023-07-16T08:22:17.026Z,90157.91
2023-07-16T08:24:43.454Z,90102.53
2023-07-16T08:27:10.534Z,90261.50
2023-07-16T08:29:37.559Z,90321.38
2023-07-16T08:32:04.320Z,90412.59
2023-07-16T08:34:31.114Z,90380.19
2023-07-16T08:36:57.482Z,90447.41
2023-07-16T08:39:26.021Z,90569.50
2023-07-16T08:41:53.353Z,90575.00
2023-07-16T08:44:20.954Z,90700.97
2023-07-16T08:46:47.584Z,90723.38
2023-07-16T08:49:14.701Z,90848.25
2023-07-16T08:51:41.897Z,91048.09
2023-07-16T08:54:08.397Z,91249.06
2023-07-16T08:56:35.311Z,91243.72
2023-07-16T08:59:02.140Z,91437.78
2023-07-16T09:01:28.799Z,91565.38
2023-07-16T09:03:55.675Z,91822.06
2023-07-16T09:06:22.184Z,92113.72
2023-07-16T09:08:48.698Z,92035.22
2023-07-16T09:11:15.541Z,92231.63
2023-07-16T09:13:45.946Z,92222.69
2023-07-16T09:16:12.333Z,92493.50
2023-07-16T09:18:41.504Z,92533.69
2023-07-16T09:21:07.948Z,92501.22
2023-07-16T09:23:34.884Z,92606.81
2023-07-16T09:26:01.757Z,92636.44
2023-07-16T09:28:28.241Z,92709.22
2023-07-16T09:30:54.814Z,92779.50
2023-07-16T09:33:24.281Z,93109.66
2023-07-16T09:35:51.327Z,93333.94
2023-07-16T09:38:19.359Z,93621.66
2023-07-16T09:40:46.849Z,93642.19
2023-07-16T09:43:14.340Z,93628.16
2023-07-16T09:45:43.364Z,93648.16
2023-07-16T09:48:10.690Z,93871.59
2023-07-16T09:50:38.102Z,93776.94
2023-07-16T09:53:05.771Z,93689.31
2023-07-16T09:55:35.517Z,93695.06
2023-07-16T09:58:07.231Z,93749.47
2023-07-16T10:00:35.526Z,93615.03
2023-07-16T10:03:02.447Z,93473.97
2023-07-16T10:05:29.778Z,93513.28
2023-07-16T10:08:00.826Z,93604.25
2023-07-16T10:10:41.435Z,93762.28
2023-07-16T10:13:09.534Z,93719.53
2023-07-16T10:15:35.951Z,93682.34
2023-07-16T10:18:02.479Z,93801.91
2023-07-16T10:20:31.485Z,93938.47
2023-07-16T10:22:58.131Z,94045.63
2023-07-16T10:25:27.370Z,94077.84
2023-07-16T10:27:55.876Z,94175.44
2023-07-16T10:30:22.780Z,94315.38
2023-07-16T10:32:52.419Z,94311.22
2023-07-16T10:35:18.912Z,94285.72
2023-07-16T10:37:45.644Z,94401.81
2023-07-16T10:40:13.298Z,94439.44
2023-07-16T10:42:44.295Z,94417.00
2023-07-16T10:45:11.802Z,94470.00
2023-07-16T10:47:51.639Z,94475.56
2023-07-16T10:50:22.291Z,94337.34
2023-07-16T10:52:55.522Z,94325.06
2023-07-16T10:55:23.629Z,94348.88
2023-07-16T10:57:51.152Z,94330.66
2023-07-16T11:00:18.801Z,94517.06
2023-07-16T11:02:46.021Z,94487.50
2023-07-16T11:05:13.412Z,94536.50
2023-07-16T11:07:55.056Z,94413.84
2023-07-16T11:10:22.125Z,94511.47
2023-07-16T11:12:54.532Z,94532.53
2023-07-16T11:15:41.263Z,94748.75
2023-07-16T11:18:09.436Z,94716.84
2023-07-16T11:20:35.905Z,94710.56
2023-07-16T11:23:02.655Z,94689.97
2023-07-16T11:25:30.078Z,94647.38
2023-07-16T11:27:59.411Z,94614.81
2023-07-16T11:30:27.224Z,94546.78
2023-07-16T11:32:54.311Z,94666.34
2023-07-16T11:35:21.622Z,94735.00
2023-07-16T11:37:49.148Z,94806.22
2023-07-16T11:40:20.596Z,94791.59
2023-07-16T11:42:48.090Z,94949.00
2023-07-16T11:45:20.751Z,94762.28
2023-07-16T11:47:47.589Z,94867.53
2023-07-16T11:50:14.557Z,94702.59
2023-07-16T11:52:42.555Z,94615.88
2023-07-16T11:55:09.270Z,94539.28
2023-07-16T11:57:36.384Z,94550.19
2023-07-16T12:00:05.544Z,94580.97
2023-07-16T12:02:32.108Z,94608.72
2023-07-16T12:04:58.558Z,94575.00
2023-07-16T12:07:37.396Z,94566.78
2023-07-16T12:10:07.995Z,94561.00
2023-07-16T12:12:39.692Z,94220.84
2023-07-16T12:15:09.992Z,92839.81
2023-07-16T12:17:36.770Z,93714.25
2023-07-16T12:20:05.511Z,94719.69
2023-07-16T12:22:32.524Z,94774.72
2023-07-16T12:24:58.963Z,94799.63
2023-07-16T12:27:25.707Z,94928.94
2023-07-16T12:29:53.375Z,94922.38
2023-07-16T12:32:21.252Z,94835.41
2023-07-16T12:34:48.270Z,94837.56
2023-07-16T12:37:14.691Z,94888.03
2023-07-16T12:39:41.113Z,94868.06
2023-07-16T12:42:07.969Z,94799.88
2023-07-16T12:44:34.326Z,94878.47
2023-07-16T12:47:01.618Z,94930.09
2023-07-16T12:49:28.006Z,95098.34
2023-07-16T12:51:54.376Z,95165.56
2023-07-16T12:54:21.151Z,95289.97
2023-07-16T12:56:47.544Z,95306.44
2023-07-16T12:59:13.914Z,95384.88
2023-07-16T13:01:40.702Z,95532.59
2023-07-16T13:04:07.421Z,95193.97
2023-07-16T13:06:33.878Z,94631.09
2023-07-16T13:09:02.381Z,94237.25
2023-07-16T13:11:28.834Z,93616.22
2023-07-16T13:13:55.230Z,93196.56
2023-07-16T13:16:21.953Z,92931.06
2023-07-16T13:18:48.431Z,92818.28
2023-07-16T13:21:14.877Z,92430.63
2023-07-16T13:23:41.685Z,92094.44
2023-07-16T13:26:08.039Z,91840.88
2023-07-16T13:28:34.504Z,91609.69
2023-07-16T13:31:01.362Z,91551.97
2023-07-16T13:33:28.035Z,91625.88
2023-07-16T13:35:54.419Z,91703.00
2023-07-16T13:38:21.394Z,91846.22
2023-07-16T13:40:47.791Z,92717.38
2023-07-16T13:43:14.229Z,94786.41
2023-07-16T13:45:40.982Z,95182.44
2023-07-16T13:48:07.353Z,95669.13
2023-07-16T13:50:33.731Z,95791.13
2023-07-16T13:53:03.011Z,95823.00
2023-07-16T13:55:29.860Z,95853.38
2023-07-16T13:57:56.722Z,95805.19
2023-07-16T14:00:24.129Z,95442.47
2023-07-16T14:02:50.670Z,94319.41
2023-07-16T14:05:17.253Z,94160.91
2023-07-16T14:07:43.977Z,94292.84
2023-07-16T14:10:10.752Z,94497.34
2023-07-16T14:12:37.146Z,94063.53
2023-07-16T14:15:04.445Z,93802.16
2023-07-16T14:17:30.831Z,93522.66
2023-07-16T14:19:57.222Z,93127.28
2023-07-16T14:22:28.030Z,92630.59
2023-07-16T14:24:55.006Z,92132.69
2023-07-16T14:27:21.558Z,92144.88
2023-07-16T14:30:04.367Z,93263.31
2023-07-16T14:32:32.856Z,93949.19
2023-07-16T14:34:59.954Z,93966.84
2023-07-16T14:37:26.529Z,93846.00
2023-07-16T14:39:53.363Z,93961.03
2023-07-16T14:42:20.123Z,93715.78
2023-07-16T14:44:46.497Z,93534.88
2023-07-16T14:47:12.873Z,93476.84
2023-07-16T14:49:39.887Z,93723.88
2023-07-16T14:52:06.595Z,93817.81
2023-07-16T14:54:34.951Z,93754.50
2023-07-16T14:57:02.411Z,93909.75
2023-07-16T14:59:29.030Z,93885.53
2023-07-16T15:01:55.403Z,93731.75
2023-07-16T15:04:22.537Z,93539.66
2023-07-16T15:06:50.896Z,93389.09
2023-07-16T15:09:17.757Z,93711.69
2023-07-16T15:11:44.558Z,93681.38
2023-07-16T15:14:13.180Z,93521.56
2023-07-16T15:16:39.982Z,93440.03
2023-07-16T15:19:06.961Z,93471.22
2023-07-16T15:21:33.382Z,93357.75
2023-07-16T15:23:59.969Z,93210.13
2023-07-16T15:26:26.752Z,93171.97
2023-07-16T15:28:53.120Z,93147.41
2023-07-16T15:31:20.822Z,92839.97
2023-07-16T15:33:47.757Z,92382.88
2023-07-16T15:36:14.815Z,92307.38
2023-07-16T15:38:41.444Z,92233.81
2023-07-16T15:41:08.332Z,92310.50
2023-07-16T15:43:34.727Z,92432.00
2023-07-16T15:46:01.104Z,92429.97
2023-07-16T15:48:28.071Z,92438.94
2023-07-16T15:50:59.173Z,93268.78
2023-07-16T15:53:25.671Z,93502.25
2023-07-16T15:55:52.508Z,93322.88
2023-07-16T15:58:22.125Z,93150.94
2023-07-16T16:00:48.875Z,92900.91
2023-07-16T16:03:15.873Z,92416.22
2023-07-16T16:05:42.336Z,92201.28
2023-07-16T16:08:13.916Z,92146.16
2023-07-16T16:10:40.770Z,92229.53
2023-07-16T16:13:07.158Z,92501.16
2023-07-16T16:15:33.535Z,92790.09
2023-07-16T16:18:00.641Z,92749.78
2023-07-16T16:20:27.136Z,92766.03
2023-07-16T16:22:53.609Z,92930.00
2023-07-16T16:25:22.227Z,93046.59
2023-07-16T16:27:48.597Z,92991.41
2023-07-16T16:30:15.152Z,93306.31
2023-07-16T16:32:42.631Z,93664.47
2023-07-16T16:35:09.416Z,93590.94
2023-07-16T16:37:35.768Z,93539.38
2023-07-16T16:40:06.743Z,93921.53
2023-07-16T16:42:33.354Z,94320.91
2023-07-16T16:45:02.693Z,94392.75
2023-07-16T16:47:31.142Z,94355.00
2023-07-16T16:49:57.499Z,94906.06
2023-07-16T16:52:23.863Z,95121.28
2023-07-16T16:54:50.901Z,95335.19
2023-07-16T16:57:17.528Z,95535.75
2023-07-16T16:59:44.115Z,95487.81
2023-07-16T17:02:10.836Z,95417.75
2023-07-16T17:04:39.391Z,95225.28
2023-07-16T17:07:08.356Z,95063.38
2023-07-16T17:09:35.531Z,95043.53
2023-07-16T17:12:02.463Z,95095.06
2023-07-16T17:14:28.880Z,95247.13
2023-07-16T17:16:56.316Z,95451.63
2023-07-16T17:19:23.780Z,95587.06
2023-07-16T17:21:50.427Z,95630.44
2023-07-16T17:24:17.411Z,95771.75
2023-07-16T17:26:43.820Z,95859.94
2023-07-16T17:29:10.369Z,95249.81
2023-07-16T17:31:37.242Z,95221.06
2023-07-16T17:34:03.861Z,95053.19
2023-07-16T17:36:30.868Z,94842.72
2023-07-16T17:38:57.645Z,94779.06
2023-07-16T17:41:24.075Z,94790.00
2023-07-16T17:43:50.442Z,94736.19
2023-07-16T17:46:17.635Z,94738.94
2023-07-16T17:48:44.286Z,94682.81
2023-07-16T17:51:12.809Z,94699.50
2023-07-16T17:53:39.924Z,94678.31
2023-07-16T17:56:06.331Z,94677.97
2023-07-16T17:58:35.742Z,94678.34
2023-07-16T18:01:02.953Z,94591.31
2023-07-16T18:03:29.559Z,94506.59
2023-07-16T18:05:56.088Z,94538.06
2023-07-16T18:08:24.097Z,94440.00
2023-07-16T18:10:50.605Z,94439.13
2023-07-16T18:13:17.344Z,94423.88
2023-07-16T18:15:44.072Z,94135.25
2023-07-16T18:18:10.713Z,93887.09
2023-07-16T18:20:37.567Z,93785.09
2023-07-16T18:23:04.905Z,93733.47
2023-07-16T18:25:31.376Z,93664.78
2023-07-16T18:27:59.287Z,93623.00
2023-07-16T18:30:26.099Z,93583.75
2023-07-16T18:32:52.547Z,93576.81
2023-07-16T18:35:19.458Z,93524.69
2023-07-16T18:37:46.423Z,93333.69
2023-07-16T18:40:13.321Z,93255.59
2023-07-16T18:42:39.780Z,93208.88
2023-07-16T18:45:07.766Z,93156.84
2023-07-16T18:47:34.232Z,93036.69
2023-07-16T18:50:00.731Z,92964.59
2023-07-16T18:52:27.646Z,92911.03
2023-07-16T18:54:56.015Z,92733.75
2023-07-16T18:57:22.486Z,92695.78
2023-07-16T18:59:49.250Z,92652.69
2023-07-16T19:02:15.874Z,92576.09
2023-07-16T19:04:42.308Z,92518.47
2023-07-16T19:07:09.021Z,92442.50
2023-07-16T19:09:35.511Z,92362.44
2023-07-16T19:12:01.892Z,92270.56
2023-07-16T19:14:28.661Z,92204.91
2023-07-16T19:16:55.067Z,92126.94
2023-07-16T19:19:21.507Z,92055.97
2023-07-16T19:21:48.314Z,91973.81
2023-07-16T19:24:14.720Z,91898.22
2023-07-16T19:26:41.516Z,91853.47
2023-07-16T19:29:08.333Z,91824.88
2023-07-16T19:31:34.797Z,91767.81
2023-07-16T19:34:01.495Z,91717.31
2023-07-16T19:36:28.236Z,91662.94
2023-07-16T19:38:54.602Z,91636.75
2023-07-16T19:41:20.991Z,91599.78
2023-07-16T19:43:47.797Z,91565.13
2023-07-16T19:46:14.281Z,91532.03
2023-07-16T19:48:40.768Z,91487.75
2023-07-16T19:51:07.637Z,91426.50
2023-07-16T19:53:34.034Z,91373.00
2023-07-16T19:56:01.208Z,91310.97
2023-07-16T19:58:28.229Z,91294.84
2023-07-16T20:00:55.531Z,91279.47
2023-07-16T20:03:22.002Z,91240.59
2023-07-16T20:05:48.813Z,91215.19
2023-07-16T20:08:16.545Z,91206.81
2023-07-16T20:10:46.554Z,91169.50
2023-07-16T20:13:14.428Z,91141.81
2023-07-16T20:15:43.721Z,91119.88
2023-07-16T20:18:13.649Z,91079.91
2023-07-16T20:20:41.038Z,91060.38
2023-07-16T20:23:07.810Z,91015.78
2023-07-16T20:25:34.218Z,90988.53
2023-07-16T20:28:00.900Z,90919.78
2023-07-16T20:30:27.336Z,90866.72
2023-07-16T20:32:55.652Z,90816.75
2023-07-16T20:35:22.862Z,90765.28
2023-07-16T20:37:49.509Z,90748.91
2023-07-16T20:40:16.322Z,90690.16
2023-07-16T20:42:45.457Z,90632.56
2023-07-16T20:45:17.147Z,90546.75
2023-07-16T20:47:44.794Z,90559.22
2023-07-16T20:50:12.696Z,90518.09
2023-07-16T20:52:40.821Z,90502.41
2023-07-16T20:55:11.170Z,90501.34
2023-07-16T20:57:39.990Z,90502.91
2023-07-16T21:00:17.446Z,90488.41
2023-07-16T21:02:51.875Z,90490.78
2023-07-16T21:05:19.222Z,90487.81
2023-07-16T21:07:49.169Z,90473.25
2023-07-16T21:10:16.318Z,90473.78
2023-07-16T21:12:43.627Z,90466.56
2023-07-16T21:15:14.151Z,90440.56
2023-07-16T21:17:40.638Z,90406.81
2023-07-16T21:20:10.175Z,90358.47
2023-07-16T21:22:43.927Z,90343.47
2023-07-16T21:25:11.213Z,90322.28
2023-07-16T21:27:42.012Z,90311.94
2023-07-16T21:30:09.274Z,90318.19
2023-07-16T21:32:35.868Z,90332.56
2023-07-16T21:35:02.269Z,90290.34
2023-07-16T21:37:29.031Z,90275.03
2023-07-16T21:39:57.777Z,90258.13
2023-07-16T21:42:25.180Z,90247.41
2023-07-16T21:44:52.068Z,90284.38
2023-07-16T21:47:18.469Z,90310.47
2023-07-16T21:49:46.191Z,90282.38
2023-07-16T21:52:12.968Z,90282.00
2023-07-16T21:54:39.372Z,90290.16
2023-07-16T21:57:06.497Z,90287.47
2023-07-16T21:59:33.206Z,90284.44
2023-07-16T22:01:59.768Z,90292.94
2023-07-16T22:04:26.476Z,90294.06
2023-07-16T22:06:53.336Z,90315.00
2023-07-16T22:09:19.970Z,90304.66
2023-07-16T22:11:46.936Z,90304.69
2023-07-16T22:14:13.784Z,90281.31
2023-07-16T22:16:40.218Z,90261.00
2023-07-16T22:19:25.395Z,90257.94
2023-07-16T22:21:55.108Z,90234.53
2023-07-16T22:24:21.484Z,90255.31
2023-07-16T22:26:47.857Z,90261.84
2023-07-16T22:29:14.570Z,90279.16
2023-07-16T22:31:40.990Z,90284.97
2023-07-16T22:34:08.301Z,90308.03
2023-07-16T22:36:35.059Z,90338.84
2023-07-16T22:39:01.428Z,90340.09
2023-07-16T22:41:29.020Z,90318.25
2023-07-16T22:43:56.196Z,90293.34
2023-07-16T22:46:23.314Z,90268.78
2023-07-16T22:48:54.034Z,90250.00
2023-07-16T22:51:20.972Z,90235.47
2023-07-16T22:53:47.479Z,90223.91
2023-07-16T22:56:13.886Z,90213.53
2023-07-16T22:58:41.033Z,90228.94
2023-07-16T23:01:09.194Z,90245.41
2023-07-16T23:03:36.425Z,90259.66
2023-07-16T23:06:03.808Z,90251.59
2023-07-16T23:08:30.269Z,90246.19
2023-07-16T23:10:57.304Z,90250.84
2023-07-16T23:13:24.148Z,90286.19
2023-07-16T23:15:50.649Z,90302.31
2023-07-16T23:18:17.069Z,90308.84
2023-07-16T23:20:44.286Z,90321.50
2023-07-16T23:23:10.783Z,90340.38
2023-07-16T23:25:41.850Z,90330.78
2023-07-16T23:28:08.881Z,90340.00
2023-07-16T23:30:36.528Z,90331.19
2023-07-16T23:33:04.785Z,90334.22
2023-07-16T23:35:31.924Z,90350.75
2023-07-16T23:37:58.426Z,90359.22
2023-07-16T23:40:25.229Z,90351.91
2023-07-16T23:42:51.609Z,90347.72
2023-07-16T23:45:18.009Z,90367.69
2023-07-16T23:47:44.928Z,90376.13
2023-07-16T23:50:11.420Z,90377.66
2023-07-16T23:52:37.968Z,90371.50
2023-07-16T23:55:05.381Z,90374.19
2023-07-16T23:57:37.036Z,90406.41
